createdAt,value
2022-09-07T00:00:26.275Z,7.63
2022-09-07T00:05:28.801Z,7.57
2022-09-07T00:10:30.642Z,7.70
2022-09-07T00:15:32.931Z,7.28
2022-09-07T00:20:35.135Z,7.40
2022-09-07T00:25:41.331Z,7.63
2022-09-07T00:30:43.401Z,8.00
2022-09-07T00:35:46.360Z,7.60
2022-09-07T00:40:48.338Z,8.05
2022-09-07T00:45:50.148Z,8.18
2022-09-07T00:50:57.064Z,7.68
2022-09-07T00:55:59.732Z,8.57
2022-09-07T01:01:01.850Z,7.95
2022-09-07T01:06:23.650Z,7.70
2022-09-07T01:11:25.759Z,7.57
2022-09-07T01:16:39.886Z,7.47
2022-09-07T01:22:03.402Z,8.25
2022-09-07T01:27:44.719Z,8.05
2022-09-07T01:32:55.664Z,7.78
2022-09-07T01:38:17.420Z,7.70
2022-09-07T01:43:32.295Z,8.20
2022-09-07T01:48:37.935Z,8.38
2022-09-07T01:53:50.394Z,8.80
2022-09-07T01:59:03.931Z,8.15
2022-09-07T02:04:05.714Z,7.57
2022-09-07T02:09:22.850Z,7.65
2022-09-07T02:14:36.319Z,7.47
2022-09-07T02:19:46.648Z,8.00
2022-09-07T02:24:54.003Z,7.93
2022-09-07T02:29:55.910Z,9.20
2022-09-07T02:34:57.873Z,7.50
2022-09-07T02:40:00.607Z,7.30
2022-09-07T02:45:05.513Z,7.25
2022-09-07T02:50:26.082Z,7.22
2022-09-07T02:55:59.903Z,7.65
2022-09-07T03:01:44.628Z,7.13
2022-09-07T03:06:58.706Z,6.95
2022-09-07T03:12:03.172Z,7.35
2022-09-07T03:17:05.098Z,7.43
2022-09-07T03:22:07.241Z,7.53
2022-09-07T03:27:09.301Z,6.53
2022-09-07T03:32:11.143Z,7.10
2022-09-07T03:37:13.001Z,7.18
2022-09-07T03:42:14.835Z,6.80
2022-09-07T03:47:17.174Z,6.25
2022-09-07T03:52:19.103Z,7.13
2022-09-07T03:57:20.962Z,6.90
2022-09-07T04:02:22.890Z,6.85
2022-09-07T04:07:24.800Z,7.65
2022-09-07T04:12:26.645Z,6.43
2022-09-07T04:17:28.468Z,6.80
2022-09-07T04:22:30.306Z,6.55
2022-09-07T04:27:32.116Z,6.60
2022-09-07T04:32:34.050Z,6.35
2022-09-07T04:37:35.875Z,6.93
2022-09-07T04:42:37.779Z,6.60
2022-09-07T04:47:39.595Z,6.55
2022-09-07T04:52:41.431Z,6.75
2022-09-07T04:57:43.324Z,6.60
2022-09-07T05:02:45.215Z,7.03
2022-09-07T05:07:47.163Z,6.28
2022-09-07T05:12:48.984Z,7.18
2022-09-07T05:17:51.490Z,6.95
2022-09-07T05:22:59.654Z,7.30
2022-09-07T05:28:01.708Z,7.50
2022-09-07T05:33:04.025Z,6.78
2022-09-07T05:38:05.868Z,6.68
2022-09-07T05:43:09.849Z,7.60
2022-09-07T05:48:11.968Z,7.60
2022-09-07T05:53:13.792Z,7.65
2022-09-07T05:58:16.175Z,7.20
2022-09-07T06:03:18.191Z,7.32
2022-09-07T06:08:20.147Z,8.10
2022-09-07T06:13:22.284Z,7.55
2022-09-07T06:18:24.083Z,8.70
2022-09-07T06:23:25.924Z,8.73
2022-09-07T06:28:32.471Z,7.78
2022-09-07T06:33:35.520Z,7.40
2022-09-07T06:38:38.104Z,9.43
2022-09-07T06:43:44.166Z,8.98
2022-09-07T06:53:50.339Z,10.15
2022-09-07T06:58:55.771Z,11.63
2022-09-07T07:03:57.588Z,10.93
2022-09-07T07:08:59.397Z,13.55
2022-09-07T07:14:01.227Z,12.73
2022-09-07T07:19:03.101Z,11.68
2022-09-07T07:24:08.214Z,11.60
2022-09-07T07:29:10.415Z,10.35
2022-09-07T07:34:12.207Z,10.75
2022-09-07T07:44:36.936Z,9.75
2022-09-07T07:49:38.687Z,10.48
2022-09-07T07:54:40.492Z,10.05
2022-09-07T07:59:42.432Z,11.00
2022-09-07T08:04:44.440Z,11.10
2022-09-07T08:09:47.956Z,12.02
2022-09-07T08:14:49.739Z,11.73
2022-09-07T08:19:52.303Z,12.93
2022-09-07T08:24:54.111Z,13.05
2022-09-07T08:29:55.898Z,11.65
2022-09-07T08:34:59.010Z,12.40
2022-09-07T08:40:00.899Z,12.88
2022-09-07T08:45:11.607Z,14.98
2022-09-07T08:50:22.980Z,12.85
2022-09-07T08:55:29.923Z,13.65
2022-09-07T09:00:31.700Z,14.07
2022-09-07T09:06:08.573Z,12.23
2022-09-07T09:11:22.413Z,10.98
2022-09-07T09:16:42.978Z,12.27
2022-09-07T09:21:45.662Z,12.35
2022-09-07T09:31:58.056Z,11.50
2022-09-07T09:37:00.482Z,9.75
2022-09-07T09:42:17.435Z,9.60
2022-09-07T09:47:36.004Z,8.38
2022-09-07T09:52:49.372Z,7.75
2022-09-07T10:08:59.486Z,7.00
2022-09-07T10:14:01.367Z,7.38
2022-09-07T10:19:03.958Z,7.38
2022-09-07T10:24:05.689Z,7.55
2022-09-07T10:29:17.451Z,8.23
2022-09-07T10:34:37.247Z,8.07
2022-09-07T10:40:03.554Z,7.32
2022-09-07T10:45:08.143Z,7.50
2022-09-07T10:50:29.892Z,7.70
2022-09-07T10:55:36.163Z,7.45
2022-09-07T11:01:18.735Z,6.53
2022-09-07T11:06:27.837Z,6.80
2022-09-07T11:17:13.403Z,6.90
2022-09-07T11:22:27.968Z,6.70
2022-09-07T11:27:48.810Z,6.25
2022-09-07T11:33:00.102Z,6.07
2022-09-07T11:38:23.593Z,4.50
2022-09-07T11:43:31.500Z,3.75
2022-09-07T11:48:42.829Z,3.25
2022-09-07T11:54:01.257Z,3.17
2022-09-07T11:59:18.929Z,3.05
2022-09-07T12:04:27.424Z,3.08
2022-09-07T12:09:56.687Z,2.63
2022-09-07T12:15:25.825Z,3.17
2022-09-07T12:20:48.428Z,3.63
2022-09-07T12:25:51.636Z,3.10
2022-09-07T12:31:01.446Z,2.72
2022-09-07T12:36:26.078Z,2.40
2022-09-07T12:41:48.671Z,4.07
2022-09-07T12:46:56.068Z,2.50
2022-09-07T12:52:33.892Z,2.58
2022-09-07T12:57:41.482Z,2.78
2022-09-07T13:03:04.796Z,2.55
2022-09-07T13:08:32.167Z,9.68
2022-09-07T13:18:56.361Z,2.72
2022-09-07T13:29:49.720Z,3.08
2022-09-07T13:34:57.702Z,2.63
2022-09-07T13:40:02.814Z,2.60
2022-09-07T13:45:07.209Z,4.68
2022-09-07T13:50:36.364Z,3.13
2022-09-07T13:56:18.170Z,2.28
2022-09-07T14:01:26.507Z,2.53
2022-09-07T14:06:32.934Z,2.15
2022-09-07T14:11:49.907Z,2.75
2022-09-07T14:17:00.939Z,2.67
2022-09-07T14:22:25.450Z,3.25
2022-09-07T14:27:41.152Z,2.70
2022-09-07T14:32:44.139Z,3.42
2022-09-07T14:37:47.535Z,2.78
2022-09-07T14:42:52.972Z,2.80
2022-09-07T14:47:56.328Z,2.33
2022-09-07T14:58:23.358Z,2.25
2022-09-07T15:03:35.483Z,2.50
2022-09-07T15:08:37.253Z,2.60
2022-09-07T15:13:44.995Z,2.67
2022-09-07T15:19:02.790Z,2.30
2022-09-07T15:29:08.518Z,2.85
2022-09-07T15:34:16.212Z,2.10
2022-09-07T15:39:25.009Z,2.75
2022-09-07T15:44:28.396Z,2.53
2022-09-07T15:49:30.391Z,2.40
2022-09-07T15:54:35.262Z,2.85
2022-09-07T15:59:38.788Z,3.67
2022-09-07T16:04:41.090Z,2.70
2022-09-07T16:09:42.932Z,2.70
2022-09-07T16:14:44.772Z,2.25
2022-09-07T16:19:46.591Z,2.22
2022-09-07T16:24:48.807Z,2.40
2022-09-07T16:29:51.711Z,2.40
2022-09-07T16:34:53.667Z,2.53
2022-09-07T16:39:56.540Z,2.30
2022-09-07T16:46:02.603Z,3.45
2022-09-07T16:50:20.027Z,3.20
2022-09-07T16:55:21.775Z,2.70
2022-09-07T17:00:23.565Z,3.05
2022-09-07T17:05:25.447Z,3.50
2022-09-07T17:10:28.703Z,4.00
2022-09-07T17:15:34.608Z,3.33
2022-09-07T17:20:36.376Z,4.43
2022-09-07T17:25:38.184Z,4.35
2022-09-07T17:30:40.055Z,4.00
2022-09-07T17:35:41.804Z,3.83
2022-09-07T17:40:44.017Z,3.75
2022-09-07T17:45:45.815Z,4.20
2022-09-07T17:50:47.571Z,2.88
2022-09-07T17:55:49.343Z,3.47
2022-09-07T18:00:51.993Z,3.70
2022-09-07T18:05:55.055Z,2.88
2022-09-07T18:16:35.269Z,3.20
2022-09-07T18:21:38.024Z,3.55
2022-09-07T18:26:39.859Z,3.15
2022-09-07T18:31:41.680Z,4.43
2022-09-07T18:36:43.999Z,4.03
2022-09-07T18:41:45.999Z,3.05
2022-09-07T18:46:47.802Z,3.60
2022-09-07T18:57:11.346Z,3.22
2022-09-07T19:02:14.364Z,4.03
2022-09-07T19:07:16.927Z,4.55
2022-09-07T19:12:18.675Z,3.65
2022-09-07T19:17:20.473Z,3.03
2022-09-07T19:22:22.280Z,3.00
2022-09-07T19:27:24.087Z,3.20
2022-09-07T19:32:25.884Z,3.58
2022-09-07T19:37:28.918Z,3.38
2022-09-07T19:42:30.727Z,3.55
2022-09-07T19:47:33.630Z,3.92
2022-09-07T19:52:35.388Z,8.50
2022-09-07T19:57:37.193Z,3.90
2022-09-07T20:02:39.741Z,3.30
2022-09-07T20:07:41.565Z,3.10
2022-09-07T20:12:44.594Z,3.65
2022-09-07T20:17:47.007Z,3.75
2022-09-07T20:22:48.891Z,3.72
2022-09-07T20:27:50.670Z,3.35
2022-09-07T20:32:52.409Z,3.53
2022-09-07T20:37:54.159Z,3.42
2022-09-07T20:42:55.897Z,3.40
2022-09-07T20:47:57.615Z,3.50
2022-09-07T20:52:59.340Z,3.15
2022-09-07T20:58:01.124Z,3.60
2022-09-07T21:03:02.840Z,6.20
2022-09-07T21:08:04.568Z,3.20
2022-09-07T21:13:06.424Z,3.50
2022-09-07T21:18:15.866Z,3.72
2022-09-07T21:23:17.772Z,3.33
2022-09-07T21:28:19.771Z,5.43
2022-09-07T21:33:21.501Z,3.80
2022-09-07T21:38:23.558Z,3.50
2022-09-07T21:43:25.448Z,3.65
2022-09-07T21:48:27.167Z,3.90
2022-09-07T21:53:29.211Z,3.55
2022-09-07T21:58:31.872Z,3.40
2022-09-07T22:03:33.660Z,3.85
2022-09-07T22:08:37.187Z,3.60
2022-09-07T22:13:39.484Z,4.00
2022-09-07T22:18:43.974Z,3.50
2022-09-07T22:23:48.483Z,3.85
2022-09-07T22:28:50.732Z,3.80
2022-09-07T22:33:54.072Z,4.20
2022-09-07T22:38:58.115Z,4.05
2022-09-07T22:44:00.424Z,4.28
2022-09-07T22:49:02.190Z,4.65
2022-09-07T22:54:04.220Z,3.88
2022-09-07T22:59:07.785Z,4.00
2022-09-07T23:04:10.695Z,4.38
2022-09-07T23:09:15.192Z,3.88
2022-09-07T23:14:19.684Z,4.00
2022-09-07T23:19:21.622Z,4.55
2022-09-07T23:24:23.346Z,4.22
2022-09-07T23:29:25.204Z,4.25
2022-09-07T23:34:26.915Z,4.30
2022-09-07T23:39:28.773Z,4.10
2022-09-07T23:44:30.995Z,4.10
2022-09-07T23:49:32.731Z,4.13
2022-09-07T23:54:34.455Z,4.70
2022-09-07T23:59:36.729Z,4.30
